createdAt,value
2019-04-27T00:00:16.348Z,9.08
2019-04-27T00:03:02.218Z,9.08
2019-04-27T00:05:39.704Z,9.09
2019-04-27T00:08:16.989Z,9.15
2019-04-27T00:10:55.499Z,9.17
2019-04-27T00:13:24.326Z,9.19
2019-04-27T00:16:09.919Z,9.18
2019-04-27T00:18:49.473Z,9.14
2019-04-27T00:21:23.714Z,9.13
2019-04-27T00:23:53.178Z,9.13
2019-04-27T00:26:23.320Z,9.07
2019-04-27T00:28:53.635Z,8.96
2019-04-27T00:31:23.407Z,9.01
2019-04-27T00:33:53.533Z,8.97
2019-04-27T00:36:29.332Z,8.85
2019-04-27T00:39:20.352Z,8.79
2019-04-27T00:41:48.870Z,8.69
2019-04-27T00:44:17.493Z,8.63
2019-04-27T00:46:46.026Z,8.56
2019-04-27T00:49:14.730Z,8.60
2019-04-27T00:51:43.491Z,8.49
2019-04-27T00:54:13.553Z,8.42
2019-04-27T00:57:03.076Z,8.36
2019-04-27T00:59:50.219Z,8.24
2019-04-27T01:02:33.173Z,8.31
2019-04-27T01:05:07.646Z,8.36
2019-04-27T01:07:36.184Z,8.43
2019-04-27T01:10:05.301Z,8.40
2019-04-27T01:12:34.085Z,8.55
2019-04-27T01:15:03.675Z,8.65
2019-04-27T01:17:32.466Z,8.52
2019-04-27T01:20:01.175Z,8.44
2019-04-27T01:22:29.689Z,8.28
2019-04-27T01:24:59.417Z,8.25
2019-04-27T01:27:39.362Z,8.17
2019-04-27T01:30:15.576Z,8.10
2019-04-27T01:32:44.091Z,8.23
2019-04-27T01:35:12.703Z,8.31
2019-04-27T01:37:41.205Z,8.24
2019-04-27T01:40:09.907Z,8.22
2019-04-27T01:42:39.518Z,8.25
2019-04-27T01:45:08.622Z,8.55
2019-04-27T01:47:39.058Z,8.45
2019-04-27T01:50:08.716Z,8.21
2019-04-27T01:52:38.534Z,8.24
2019-04-27T01:55:08.620Z,8.02
2019-04-27T01:57:38.630Z,8.03
2019-04-27T02:00:27.084Z,7.96
2019-04-27T02:02:59.526Z,7.77
2019-04-27T02:05:33.358Z,7.78
2019-04-27T02:08:01.919Z,7.65
2019-04-27T02:10:30.514Z,7.68
2019-04-27T02:12:59.247Z,7.58
2019-04-27T02:15:29.348Z,7.68
2019-04-27T02:17:59.648Z,7.65
2019-04-27T02:20:29.979Z,7.53
2019-04-27T02:22:58.813Z,7.52
2019-04-27T02:25:29.342Z,7.54
2019-04-27T02:28:03.926Z,7.46
2019-04-27T02:31:01.840Z,7.38
2019-04-27T02:33:37.130Z,7.51
2019-04-27T02:36:05.735Z,7.64
2019-04-27T02:38:34.256Z,8.03
2019-04-27T02:41:03.663Z,8.10
2019-04-27T02:43:55.230Z,7.96
2019-04-27T02:46:23.855Z,8.17
2019-04-27T02:48:59.727Z,8.09
2019-04-27T02:51:30.257Z,8.23
2019-04-27T02:54:00.330Z,8.28
2019-04-27T02:56:30.501Z,8.18
2019-04-27T02:58:59.767Z,8.06
2019-04-27T03:01:31.237Z,8.25
2019-04-27T03:04:00.491Z,8.11
2019-04-27T03:06:30.161Z,8.23
2019-04-27T03:09:00.487Z,8.09
2019-04-27T03:11:30.924Z,8.37
2019-04-27T03:14:36.060Z,8.20
2019-04-27T03:17:10.672Z,8.40
2019-04-27T03:19:44.422Z,8.15
2019-04-27T03:22:22.296Z,8.25
2019-04-27T03:25:05.296Z,8.05
2019-04-27T03:27:35.233Z,8.11
2019-04-27T03:30:04.284Z,8.12
2019-04-27T03:32:33.014Z,8.18
2019-04-27T03:35:03.356Z,8.07
2019-04-27T03:37:32.409Z,8.25
2019-04-27T03:40:01.143Z,8.19
2019-04-27T03:42:31.216Z,8.26
2019-04-27T03:45:00.585Z,8.04
2019-04-27T03:47:30.650Z,7.97
2019-04-27T03:50:00.206Z,8.01
2019-04-27T03:52:35.675Z,7.92
2019-04-27T03:58:13.957Z,7.64
2019-04-27T04:00:42.594Z,7.59
2019-04-27T04:03:11.340Z,7.57
2019-04-27T04:05:40.043Z,7.74
2019-04-27T04:08:10.737Z,7.66
2019-04-27T04:10:43.340Z,7.78
2019-04-27T04:13:16.960Z,7.77
2019-04-27T04:15:55.800Z,7.75
2019-04-27T04:18:25.379Z,7.78
2019-04-27T04:20:53.966Z,7.78
2019-04-27T04:23:22.482Z,7.87
2019-04-27T04:25:51.177Z,7.89
2019-04-27T04:28:20.178Z,7.92
2019-04-27T04:30:50.108Z,8.00
2019-04-27T04:33:20.544Z,7.93
2019-04-27T04:35:49.949Z,7.93
2019-04-27T04:38:20.602Z,8.02
2019-04-27T04:40:56.501Z,8.06
2019-04-27T04:43:36.861Z,8.17
2019-04-27T04:46:24.165Z,8.47
2019-04-27T04:48:52.671Z,8.75
2019-04-27T04:51:21.198Z,8.80
2019-04-27T04:53:51.871Z,8.94
2019-04-27T04:56:20.228Z,9.02
2019-04-27T04:58:49.714Z,9.16
2019-04-27T05:01:19.694Z,9.19
2019-04-27T05:03:48.830Z,9.27
2019-04-27T05:06:18.932Z,9.47
2019-04-27T05:08:49.263Z,9.54
2019-04-27T05:11:19.584Z,9.69
2019-04-27T05:13:49.425Z,9.80
2019-04-27T05:16:18.887Z,9.92
2019-04-27T05:18:49.415Z,9.87
2019-04-27T05:21:31.296Z,10.00
2019-04-27T05:24:00.747Z,10.06
2019-04-27T05:26:29.585Z,10.08
2019-04-27T05:28:59.290Z,10.15
2019-04-27T05:31:29.311Z,10.18
2019-04-27T05:33:59.349Z,10.23
2019-04-27T05:36:29.649Z,10.30
2019-04-27T05:38:59.750Z,10.33
2019-04-27T05:41:31.185Z,10.40
2019-04-27T05:44:19.041Z,10.44
2019-04-27T05:47:05.306Z,10.40
2019-04-27T05:49:44.517Z,10.48
2019-04-27T05:52:31.271Z,10.64
2019-04-27T05:54:59.761Z,10.66
2019-04-27T05:57:31.203Z,10.69
2019-04-27T06:00:02.135Z,10.72
2019-04-27T06:02:30.192Z,10.72
2019-04-27T06:05:00.079Z,10.73
2019-04-27T06:07:29.669Z,10.75
2019-04-27T06:09:59.841Z,10.81
2019-04-27T06:12:29.667Z,11.04
2019-04-27T06:14:59.874Z,11.03
2019-04-27T06:17:29.880Z,11.16
2019-04-27T06:19:59.675Z,11.08
2019-04-27T06:22:29.179Z,11.26
2019-04-27T06:24:59.708Z,11.20
2019-04-27T06:27:30.696Z,11.35
2019-04-27T06:29:59.446Z,11.42
2019-04-27T06:32:29.575Z,11.44
2019-04-27T06:34:59.019Z,11.42
2019-04-27T06:37:29.326Z,11.40
2019-04-27T06:39:59.654Z,11.41
2019-04-27T06:42:29.650Z,11.54
2019-04-27T06:44:59.903Z,11.61
2019-04-27T06:47:29.452Z,11.40
2019-04-27T06:49:58.779Z,11.39
2019-04-27T06:52:29.118Z,11.36
2019-04-27T06:54:57.990Z,11.43
2019-04-27T06:57:26.478Z,11.30
2019-04-27T06:59:55.200Z,11.27
2019-04-27T07:02:23.952Z,11.19
2019-04-27T07:04:52.555Z,11.17
2019-04-27T07:07:21.068Z,10.98
2019-04-27T07:09:49.599Z,10.90
2019-04-27T07:12:19.113Z,10.72
2019-04-27T07:14:54.375Z,10.62
2019-04-27T07:17:19.049Z,10.47
2019-04-27T07:19:49.573Z,10.20
2019-04-27T07:22:20.042Z,10.06
2019-04-27T07:24:49.147Z,9.84
2019-04-27T07:27:19.138Z,9.73
2019-04-27T07:29:49.468Z,9.70
2019-04-27T07:32:19.276Z,9.75
2019-04-27T07:34:49.648Z,9.72
2019-04-27T07:37:19.532Z,9.70
2019-04-27T07:39:49.228Z,9.74
2019-04-27T07:42:19.279Z,9.68
2019-04-27T07:45:00.019Z,9.70
2019-04-27T07:47:31.075Z,9.82
2019-04-27T07:50:01.459Z,9.93
2019-04-27T07:52:30.111Z,9.95
2019-04-27T07:54:58.856Z,10.03
2019-04-27T07:57:28.980Z,10.05
2019-04-27T07:59:59.497Z,10.12
2019-04-27T08:02:29.141Z,10.13
2019-04-27T08:04:59.434Z,10.19
2019-04-27T08:07:29.114Z,10.15
2019-04-27T08:10:01.191Z,10.26
2019-04-27T08:12:28.889Z,10.23
2019-04-27T08:14:57.500Z,10.14
2019-04-27T08:17:26.137Z,10.15
2019-04-27T08:19:54.652Z,10.18
2019-04-27T08:22:23.185Z,10.12
2019-04-27T08:24:51.728Z,10.17
2019-04-27T08:27:29.477Z,10.20
2019-04-27T08:30:05.828Z,10.35
2019-04-27T08:32:39.077Z,10.46
2019-04-27T08:35:09.565Z,10.59
2019-04-27T08:37:38.705Z,10.69
2019-04-27T08:40:09.308Z,10.81
2019-04-27T08:42:39.175Z,10.82
2019-04-27T08:45:09.430Z,10.94
2019-04-27T08:47:39.470Z,11.00
2019-04-27T08:50:09.321Z,11.03
2019-04-27T08:52:41.408Z,11.05
2019-04-27T08:55:09.990Z,11.07
2019-04-27T08:57:38.882Z,10.95
2019-04-27T09:00:09.432Z,10.92
2019-04-27T09:02:44.532Z,11.06
2019-04-27T09:05:09.600Z,10.90
2019-04-27T09:07:44.204Z,10.78
2019-04-27T09:10:38.904Z,10.87
2019-04-27T09:13:19.829Z,10.70
2019-04-27T09:16:00.058Z,10.49
2019-04-27T09:18:32.386Z,10.44
2019-04-27T09:21:01.950Z,10.33
2019-04-27T09:23:30.460Z,10.22
2019-04-27T09:25:59.557Z,10.22
2019-04-27T09:28:29.458Z,10.24
2019-04-27T09:30:58.892Z,10.26
2019-04-27T09:33:27.569Z,10.16
2019-04-27T09:35:56.688Z,10.21
2019-04-27T09:38:26.434Z,10.28
2019-04-27T09:40:55.905Z,10.34
2019-04-27T09:43:26.415Z,10.41
2019-04-27T09:45:55.784Z,10.44
2019-04-27T09:48:25.969Z,10.50
2019-04-27T09:50:56.005Z,10.63
2019-04-27T09:53:24.871Z,10.88
2019-04-27T09:55:53.429Z,11.02
2019-04-27T09:58:22.084Z,10.89
2019-04-27T10:00:50.604Z,10.91
2019-04-27T10:03:19.131Z,10.98
2019-04-27T10:05:47.995Z,11.18
2019-04-27T10:08:17.017Z,11.38
2019-04-27T10:10:45.968Z,11.32
2019-04-27T10:13:16.309Z,11.31
2019-04-27T10:15:45.931Z,11.13
2019-04-27T10:18:16.304Z,10.89
2019-04-27T10:20:58.198Z,10.86
2019-04-27T10:23:15.546Z,10.77
2019-04-27T10:25:45.687Z,10.84
2019-04-27T10:28:14.391Z,10.83
2019-04-27T10:30:43.027Z,10.56
2019-04-27T10:33:11.545Z,10.38
2019-04-27T10:35:40.167Z,9.41
2019-04-27T10:38:08.763Z,9.29
2019-04-27T10:40:37.279Z,9.14
2019-04-27T10:43:06.406Z,9.38
2019-04-27T10:45:35.782Z,9.75
2019-04-27T10:48:05.913Z,9.97
2019-04-27T10:50:36.461Z,10.00
2019-04-27T10:53:06.968Z,10.19
2019-04-27T10:55:36.305Z,10.36
2019-04-27T10:58:05.195Z,10.54
2019-04-27T11:00:39.517Z,10.52
2019-04-27T11:03:08.200Z,10.75
2019-04-27T11:05:56.949Z,10.70
2019-04-27T11:08:25.801Z,10.75
2019-04-27T11:10:56.287Z,10.52
2019-04-27T11:13:25.764Z,9.99
2019-04-27T11:15:54.378Z,10.01
2019-04-27T11:18:22.989Z,9.68
2019-04-27T11:20:51.598Z,9.68
2019-04-27T11:23:20.298Z,9.54
2019-04-27T11:25:48.830Z,9.47
2019-04-27T11:28:17.389Z,9.28
2019-04-27T11:30:45.933Z,8.71
2019-04-27T11:33:16.184Z,8.93
2019-04-27T11:35:53.835Z,8.64
2019-04-27T11:38:22.469Z,8.61
2019-04-27T11:40:51.091Z,8.75
2019-04-27T11:43:19.730Z,8.90
2019-04-27T11:45:48.261Z,8.91
2019-04-27T11:48:16.805Z,9.32
2019-04-27T11:50:45.918Z,9.57
2019-04-27T11:53:22.871Z,9.73
2019-04-27T11:55:45.448Z,9.59
2019-04-27T11:58:13.949Z,9.68
2019-04-27T12:00:42.589Z,9.88
2019-04-27T12:03:11.207Z,9.85
2019-04-27T12:05:39.986Z,9.98
2019-04-27T12:08:08.626Z,9.71
2019-04-27T12:10:37.273Z,9.83
2019-04-27T12:13:07.799Z,9.78
2019-04-27T12:15:36.461Z,9.73
2019-04-27T12:18:08.807Z,9.59
2019-04-27T12:20:35.952Z,9.64
2019-04-27T12:23:06.509Z,9.41
2019-04-27T12:25:37.279Z,9.23
2019-04-27T12:28:12.665Z,9.18
2019-04-27T12:31:08.767Z,9.51
2019-04-27T12:33:37.232Z,10.04
2019-04-27T12:36:06.728Z,9.94
2019-04-27T12:38:36.562Z,10.20
2019-04-27T12:41:06.782Z,10.22
2019-04-27T12:43:37.267Z,10.26
2019-04-27T12:46:06.212Z,10.36
2019-04-27T12:48:37.073Z,10.55
2019-04-27T12:51:05.739Z,11.16
2019-04-27T12:53:49.348Z,12.51
2019-04-27T12:56:30.655Z,13.95
2019-04-27T12:59:09.704Z,14.61
2019-04-27T13:01:38.343Z,14.56
2019-04-27T13:04:07.076Z,12.66
2019-04-27T13:06:35.872Z,12.50
2019-04-27T13:09:07.110Z,13.42
2019-04-27T13:11:36.647Z,14.67
2019-04-27T13:14:06.218Z,16.28
2019-04-27T13:16:35.063Z,17.40
2019-04-27T13:19:03.597Z,16.56
2019-04-27T13:21:32.309Z,16.43
2019-04-27T13:24:04.420Z,17.72
2019-04-27T13:26:31.402Z,16.58
2019-04-27T13:28:59.926Z,16.49
2019-04-27T13:31:28.581Z,18.05
2019-04-27T13:33:57.132Z,17.17
2019-04-27T13:36:26.585Z,16.41
2019-04-27T13:38:55.965Z,16.69
2019-04-27T13:41:30.423Z,17.38
2019-04-27T13:43:57.188Z,17.18
2019-04-27T13:46:35.219Z,16.69
2019-04-27T13:49:12.328Z,16.97
2019-04-27T13:52:06.486Z,16.19
2019-04-27T13:54:35.122Z,15.74
2019-04-27T13:57:04.100Z,14.81
2019-04-27T13:59:32.736Z,14.70
2019-04-27T14:02:01.476Z,16.47
2019-04-27T14:04:30.026Z,17.53
2019-04-27T14:06:59.063Z,17.92
2019-04-27T14:09:27.771Z,17.97
2019-04-27T14:12:03.651Z,16.61
2019-04-27T14:14:32.275Z,14.59
2019-04-27T14:17:00.944Z,13.71
2019-04-27T14:19:29.450Z,13.97
2019-04-27T14:21:59.080Z,14.63
2019-04-27T14:24:40.215Z,15.19
2019-04-27T14:27:09.472Z,15.14
2019-04-27T14:29:39.162Z,14.45
2019-04-27T14:32:08.710Z,14.71
2019-04-27T14:34:37.253Z,16.98
2019-04-27T14:37:05.887Z,17.06
2019-04-27T14:39:34.611Z,14.79
2019-04-27T14:42:03.236Z,14.04
2019-04-27T14:44:31.864Z,13.88
2019-04-27T14:47:00.375Z,14.27
2019-04-27T14:49:29.098Z,14.27
2019-04-27T14:51:58.517Z,14.22
2019-04-27T14:54:30.168Z,14.15
2019-04-27T14:56:58.939Z,13.85
2019-04-27T14:59:27.550Z,13.36
2019-04-27T15:01:56.178Z,12.96
2019-04-27T15:04:24.737Z,12.97
2019-04-27T15:06:53.366Z,13.41
2019-04-27T15:09:23.917Z,13.77
2019-04-27T15:11:53.461Z,13.40
2019-04-27T15:14:23.946Z,13.32
2019-04-27T15:16:52.817Z,13.61
2019-04-27T15:19:27.455Z,13.32
2019-04-27T15:21:58.891Z,13.45
2019-04-27T15:24:26.658Z,13.95
2019-04-27T15:27:00.787Z,13.88
2019-04-27T15:29:28.046Z,13.78
2019-04-27T15:32:03.986Z,12.93
2019-04-27T15:34:53.795Z,12.30
2019-04-27T15:37:53.732Z,11.62
2019-04-27T15:40:31.277Z,11.52
2019-04-27T15:43:14.640Z,11.54
2019-04-27T15:45:43.288Z,11.09
2019-04-27T15:48:11.797Z,10.82
2019-04-27T15:50:40.442Z,10.04
2019-04-27T15:53:12.339Z,9.93
2019-04-27T15:55:39.792Z,9.85
2019-04-27T15:58:09.806Z,9.66
2019-04-27T16:00:38.565Z,9.47
2019-04-27T16:03:08.018Z,9.49
2019-04-27T16:05:37.655Z,9.71
2019-04-27T16:08:12.572Z,10.06
2019-04-27T16:10:40.032Z,10.09
2019-04-27T16:13:10.020Z,10.41
2019-04-27T16:15:38.348Z,10.88
2019-04-27T16:18:08.746Z,10.91
2019-04-27T16:20:38.114Z,11.15
2019-04-27T16:23:08.759Z,11.15
2019-04-27T16:25:47.462Z,11.19
2019-04-27T16:28:11.586Z,11.39
2019-04-27T16:30:39.384Z,11.09
2019-04-27T16:33:08.689Z,11.43
2019-04-27T16:35:38.712Z,10.69
2019-04-27T16:38:33.592Z,10.86
2019-04-27T16:41:03.297Z,10.46
2019-04-27T16:43:32.889Z,10.43
2019-04-27T16:46:04.230Z,10.32
2019-04-27T16:48:34.523Z,10.13
2019-04-27T16:51:02.558Z,10.21
2019-04-27T16:53:39.454Z,10.00
2019-04-27T16:56:14.203Z,9.93
2019-04-27T16:58:39.388Z,9.93
2019-04-27T17:01:18.376Z,10.04
2019-04-27T17:03:48.509Z,10.07
2019-04-27T17:06:21.043Z,10.18
2019-04-27T17:08:49.609Z,10.31
2019-04-27T17:11:19.609Z,10.39
2019-04-27T17:13:54.124Z,10.36
2019-04-27T17:16:40.166Z,10.61
2019-04-27T17:19:18.061Z,10.55
2019-04-27T17:21:48.390Z,10.64
2019-04-27T17:24:37.465Z,10.68
2019-04-27T17:27:04.191Z,10.74
2019-04-27T17:29:36.130Z,10.95
2019-04-27T17:32:05.270Z,10.85
2019-04-27T17:34:33.874Z,11.26
2019-04-27T17:37:02.519Z,11.46
2019-04-27T17:39:31.234Z,11.28
2019-04-27T17:41:59.842Z,10.98
2019-04-27T17:44:28.822Z,11.30
2019-04-27T17:46:57.470Z,11.32
2019-04-27T17:49:27.958Z,11.20
2019-04-27T17:51:58.571Z,11.36
2019-04-27T17:54:29.018Z,11.15
2019-04-27T17:56:58.083Z,10.95
2019-04-27T17:59:26.596Z,11.04
2019-04-27T18:02:00.935Z,10.79
2019-04-27T18:04:25.847Z,11.02
2019-04-27T18:06:55.545Z,10.84
2019-04-27T18:09:24.997Z,10.11
2019-04-27T18:11:54.496Z,9.25
2019-04-27T18:17:10.356Z,8.41
2019-04-27T18:19:44.292Z,7.94
2019-04-27T18:22:13.490Z,7.86
2019-04-27T18:24:50.929Z,7.76
2019-04-27T18:27:37.765Z,7.81
2019-04-27T18:30:15.106Z,7.79
2019-04-27T18:32:43.807Z,7.52
2019-04-27T18:35:12.546Z,7.60
2019-04-27T18:37:41.064Z,7.56
2019-04-27T18:40:09.804Z,7.49
2019-04-27T18:42:38.556Z,7.34
2019-04-27T18:45:08.345Z,7.39
2019-04-27T18:47:40.526Z,7.57
2019-04-27T18:50:29.115Z,7.55
2019-04-27T18:53:10.224Z,7.57
2019-04-27T18:55:38.739Z,7.62
2019-04-27T18:58:09.089Z,7.51
2019-04-27T19:00:38.190Z,7.47
2019-04-27T19:03:06.849Z,7.46
2019-04-27T19:05:40.156Z,7.46
2019-04-27T19:08:06.009Z,7.65
2019-04-27T19:10:34.760Z,7.63
2019-04-27T19:13:03.547Z,7.67
2019-04-27T19:15:33.403Z,7.67
2019-04-27T19:18:02.058Z,7.55
2019-04-27T19:20:30.566Z,7.51
2019-04-27T19:22:59.824Z,7.62
2019-04-27T19:25:35.985Z,7.65
2019-04-27T19:28:28.297Z,7.64
2019-04-27T19:31:04.622Z,7.61
2019-04-27T19:33:33.217Z,7.67
2019-04-27T19:36:02.017Z,7.70
2019-04-27T19:38:30.558Z,7.61
2019-04-27T19:40:59.310Z,7.90
2019-04-27T19:43:28.472Z,7.79
2019-04-27T19:45:58.424Z,7.90
2019-04-27T19:48:28.661Z,7.88
2019-04-27T19:50:57.331Z,7.80
2019-04-27T19:53:25.850Z,7.82
2019-04-27T19:56:03.301Z,7.84
2019-04-27T19:58:38.077Z,7.89
2019-04-27T20:01:14.580Z,7.89
2019-04-27T20:03:49.039Z,7.77
2019-04-27T20:06:18.823Z,7.81
2019-04-27T20:08:49.817Z,7.84
2019-04-27T20:11:18.431Z,7.80
2019-04-27T20:13:46.933Z,7.66
2019-04-27T20:16:15.457Z,7.61
2019-04-27T20:18:44.186Z,7.82
2019-04-27T20:21:12.715Z,7.84
2019-04-27T20:23:41.265Z,7.88
2019-04-27T20:26:09.771Z,7.82
2019-04-27T20:28:38.645Z,7.82
2019-04-27T20:31:07.240Z,7.79
2019-04-27T20:33:35.749Z,7.73
2019-04-27T20:36:04.369Z,7.68
2019-04-27T20:38:33.068Z,7.67
2019-04-27T20:41:01.578Z,7.73
2019-04-27T20:43:31.816Z,7.60
2019-04-27T20:46:00.934Z,7.70
2019-04-27T20:48:31.186Z,7.57
2019-04-27T20:51:01.306Z,7.71
2019-04-27T20:53:36.231Z,7.80
2019-04-27T20:56:05.076Z,7.83
2019-04-27T20:58:33.610Z,7.81
2019-04-27T21:01:04.743Z,7.74
2019-04-27T21:03:37.783Z,7.80
2019-04-27T21:06:26.115Z,7.70
2019-04-27T21:08:54.766Z,7.75
2019-04-27T21:11:23.338Z,7.65
2019-04-27T21:13:53.466Z,7.60
2019-04-27T21:16:22.516Z,7.77
2019-04-27T21:18:51.337Z,7.86
2019-04-27T21:21:21.559Z,7.81
2019-04-27T21:23:51.476Z,7.78
2019-04-27T21:26:21.468Z,7.76
2019-04-27T21:28:51.374Z,7.81
2019-04-27T21:31:21.335Z,7.81
2019-04-27T21:33:49.959Z,7.89
2019-04-27T21:36:18.554Z,7.83
2019-04-27T21:38:47.097Z,7.85
2019-04-27T21:41:15.724Z,7.72
2019-04-27T21:43:44.352Z,7.61
2019-04-27T21:46:12.873Z,7.70
2019-04-27T21:48:41.624Z,7.72
2019-04-27T21:51:11.853Z,7.61
2019-04-27T21:53:59.222Z,7.75
2019-04-27T21:56:27.746Z,7.76
2019-04-27T21:58:56.284Z,7.75
2019-04-27T22:01:28.068Z,7.80
2019-04-27T22:03:56.815Z,7.74
2019-04-27T22:06:25.434Z,7.74
2019-04-27T22:08:54.057Z,7.82
2019-04-27T22:11:23.000Z,7.71
2019-04-27T22:13:51.757Z,7.74
2019-04-27T22:16:21.323Z,7.76
2019-04-27T22:18:51.857Z,7.87
2019-04-27T22:21:21.641Z,7.93
2019-04-27T22:24:08.477Z,8.07
2019-04-27T22:26:37.216Z,8.06
2019-04-27T22:29:05.834Z,8.01
2019-04-27T22:31:34.443Z,7.95
2019-04-27T22:34:03.189Z,7.99
2019-04-27T22:36:31.699Z,7.97
2019-04-27T22:39:08.866Z,7.97
2019-04-27T22:41:45.382Z,8.01
2019-04-27T22:44:33.554Z,8.01
2019-04-27T22:47:02.302Z,7.94
2019-04-27T22:49:31.324Z,8.00
2019-04-27T22:52:01.494Z,8.06
2019-04-27T22:54:31.900Z,8.04
2019-04-27T22:57:05.043Z,8.01
2019-04-27T22:59:53.513Z,7.99
2019-04-27T23:02:40.426Z,8.04
2019-04-27T23:05:10.853Z,7.99
2019-04-27T23:07:41.345Z,7.96
2019-04-27T23:10:11.286Z,7.95
2019-04-27T23:12:41.816Z,7.96
2019-04-27T23:15:15.473Z,7.98
2019-04-27T23:18:03.816Z,8.04
2019-04-27T23:20:32.421Z,8.01
2019-04-27T23:23:02.793Z,8.03
2019-04-27T23:25:31.487Z,8.04
2019-04-27T23:28:00.092Z,7.95
2019-04-27T23:30:36.618Z,7.96
2019-04-27T23:33:05.154Z,8.05
2019-04-27T23:35:33.695Z,8.11
2019-04-27T23:38:14.786Z,8.07
2019-04-27T23:40:32.836Z,8.14
2019-04-27T23:43:01.702Z,8.07
2019-04-27T23:45:31.850Z,8.17
2019-04-27T23:48:00.531Z,8.16
2019-04-27T23:50:31.434Z,8.14
2019-04-27T23:53:05.445Z,8.17
2019-04-27T23:55:35.071Z,8.17
2019-04-27T23:58:03.787Z,8.18
